Time;durP1;ratioP1;P1;durP2;ratioP2;P2;SDS_P1;SDS_P2;PMS_P1;PMS_P2;Temp;Humidity;BMP_temperature;BMP_pressure;BME280_temperature;BME280_humidity;BME280_pressure;Samples;Min_cycle;Max_cycle;Signal;HPM_P1;HPM_P2
2022/12/24 00:00:04;;;;;;;;;0.25;0.25;;;;;11.21;86.28;98820.22;5035790;28;8830;-59
2022/12/24 00:02:32;;;;;;;;;1.00;1.00;;;;;11.20;86.13;98821.19;5035576;28;8841;-59
2022/12/24 00:05:01;;;;;;;;;3.00;2.00;;;;;11.20;86.15;98816.72;5035626;28;8905;-59
2022/12/24 00:07:28;;;;;;;;;0.50;0.00;;;;;11.20;86.59;98818.53;5035308;28;9620;-59
2022/12/24 00:09:56;;;;;;;;;3.00;1.00;;;;;11.20;85.77;98830.03;5035149;28;8828;-59
2022/12/24 00:12:24;;;;;;;;;0.50;0.25;;;;;11.19;86.26;98833.69;5035121;28;8855;-59
2022/12/24 00:14:52;;;;;;;;;0.00;0.00;;;;;11.20;86.30;98838.03;5034864;28;8840;-58
2022/12/24 00:17:20;;;;;;;;;6.00;4.00;;;;;11.20;86.06;98840.69;5035147;28;9530;-58
2022/12/24 00:19:48;;;;;;;;;0.75;0.00;;;;;11.10;86.13;98845.28;5035234;28;8885;-59
2022/12/24 00:22:15;;;;;;;;;3.00;1.00;;;;;10.96;86.06;98848.47;5035747;28;8938;-60
2022/12/24 00:24:43;;;;;;;;;3.75;3.00;;;;;10.85;86.36;98856.66;5035927;28;8987;-59
2022/12/24 00:27:11;;;;;;;;;1.00;1.00;;;;;10.78;86.50;98863.56;5035348;28;8858;-59
2022/12/24 00:29:39;;;;;;;;;2.00;2.00;;;;;10.75;86.64;98869.19;5035649;28;8975;-57
2022/12/24 00:32:09;;;;;;;;;0.75;0.75;;;;;10.76;87.02;98860.22;5035800;28;8847;-59
2022/12/24 00:34:36;;;;;;;;;3.75;3.25;;;;;10.82;86.51;98874.75;5035535;28;8844;-58
2022/12/24 00:37:05;;;;;;;;;2.00;2.00;;;;;10.88;86.05;98869.69;5035599;28;8840;-58
2022/12/24 00:39:33;;;;;;;;;1.00;1.00;;;;;10.87;86.15;98889.31;5035647;28;9046;-59
2022/12/24 00:42:00;;;;;;;;;1.50;1.50;;;;;10.81;86.35;98889.91;5036009;28;9634;-58
2022/12/24 00:44:28;;;;;;;;;1.00;1.00;;;;;10.73;86.73;98902.28;5035489;28;8836;-59
2022/12/24 00:46:56;;;;;;;;;0.50;0.50;;;;;10.64;86.68;98897.84;5035511;28;8860;-59
2022/12/24 00:49:24;;;;;;;;;2.00;2.00;;;;;10.60;87.14;98896.44;5035435;28;8833;-58
2022/12/24 00:51:51;;;;;;;;;0.75;0.75;;;;;10.60;86.88;98904.44;5035701;28;8903;-59
2022/12/24 00:54:20;;;;;;;;;1.00;1.00;;;;;10.63;86.33;98897.00;5035464;28;8851;-57
2022/12/24 00:56:47;;;;;;;;;2.50;1.50;;;;;10.68;86.46;98897.41;5035350;28;8930;-59
2022/12/24 00:59:15;;;;;;;;;1.00;1.00;;;;;10.72;86.60;98905.94;5036662;28;9502;-57
2022/12/24 01:01:43;;;;;;;;;1.50;1.50;;;;;10.76;86.13;98912.66;5039277;28;8857;-59
2022/12/24 01:06:57;;;;;;;;;3.75;3.75;;;;;10.85;85.93;98917.91;5038148;28;8921;-59
2022/12/24 01:09:24;;;;;;;;;2.00;2.00;;;;;10.89;85.81;98929.94;5037907;28;8854;-57
2022/12/24 01:11:52;;;;;;;;;2.50;2.50;;;;;10.91;86.07;98938.63;5038096;28;8850;-57
2022/12/24 01:14:20;;;;;;;;;4.50;2.00;;;;;10.91;85.90;98941.28;5037799;28;8875;-59
2022/12/24 01:16:48;;;;;;;;;1.00;1.00;;;;;10.92;85.87;98931.47;5037982;28;8856;-58
2022/12/24 01:19:16;;;;;;;;;1.00;1.00;;;;;10.91;85.82;98946.59;5038746;28;8824;-59
2022/12/24 01:21:44;;;;;;;;;1.00;1.00;;;;;10.91;86.00;98943.94;5039091;28;8849;-56
2022/12/24 01:24:11;;;;;;;;;0.00;0.00;;;;;10.93;85.58;98941.16;5039091;28;8820;-58
2022/12/24 01:26:39;;;;;;;;;4.50;3.75;;;;;10.93;85.33;98962.44;5038961;28;8836;-57
2022/12/24 01:29:07;;;;;;;;;0.00;0.00;;;;;10.91;85.82;98962.59;5038312;28;8809;-59
2022/12/24 01:31:35;;;;;;;;;2.00;1.00;;;;;10.91;85.78;98959.09;5038962;28;8824;-59
2022/12/24 01:34:03;;;;;;;;;0.00;0.00;;;;;10.89;85.71;98980.56;5038695;28;8837;-57
2022/12/24 01:36:30;;;;;;;;;0.00;0.00;;;;;10.89;85.31;98967.25;5037677;28;8817;-60
2022/12/24 01:38:58;;;;;;;;;1.00;1.00;;;;;10.89;85.69;98980.56;5037639;28;8851;-59
2022/12/24 01:44:11;;;;;;;;;1.50;1.50;;;;;10.90;85.57;98990.22;5038354;28;8856;-59
2022/12/24 01:46:39;;;;;;;;;0.50;0.00;;;;;10.91;85.18;98983.09;5038197;28;8848;-60
2022/12/24 01:49:07;;;;;;;;;3.50;3.25;;;;;10.92;84.98;98982.91;5037800;28;8828;-59
2022/12/24 01:51:35;;;;;;;;;3.00;3.00;;;;;10.93;84.40;98981.09;5036082;28;8836;-59
2022/12/24 01:54:03;;;;;;;;;1.00;1.00;;;;;10.92;85.10;98985.56;5036462;28;9831;-58
2022/12/24 01:56:31;;;;;;;;;2.00;2.00;;;;;10.92;85.09;98982.91;5036664;28;9534;-59
2022/12/24 01:58:58;;;;;;;;;2.00;2.00;;;;;10.91;84.34;98991.88;5037778;28;8945;-58
2022/12/24 02:01:26;;;;;;;;;1.00;1.00;;;;;10.90;85.09;98989.38;5037993;28;8836;-57
2022/12/24 02:03:54;;;;;;;;;0.75;0.00;;;;;10.89;85.00;98987.69;5037920;28;8858;-60
2022/12/24 02:06:22;;;;;;;;;1.00;1.00;;;;;10.86;85.06;98985.34;5037571;28;8880;-58
2022/12/24 02:08:50;;;;;;;;;1.00;1.00;;;;;10.84;85.03;98992.66;5038088;28;8848;-58
2022/12/24 02:11:18;;;;;;;;;2.50;0.50;;;;;10.83;84.35;99005.09;5037542;28;8827;-58
2022/12/24 02:13:46;;;;;;;;;3.00;3.00;;;;;10.83;84.64;99010.44;5038269;28;9487;-59
2022/12/24 02:16:13;;;;;;;;;1.50;0.50;;;;;10.79;84.88;99013.53;5037850;28;8851;-59
2022/12/24 02:18:41;;;;;;;;;4.00;3.00;;;;;10.77;84.64;99015.50;5037612;28;8955;-58
2022/12/24 02:21:09;;;;;;;;;2.00;2.00;;;;;10.74;84.85;99019.31;5037636;28;8962;-57
2022/12/24 02:23:37;;;;;;;;;3.00;1.50;;;;;10.75;84.41;99018.31;5036999;28;8836;-58
2022/12/24 02:26:05;;;;;;;;;3.25;1.00;;;;;10.75;84.58;99022.78;5036570;28;8824;-58
2022/12/24 02:28:32;;;;;;;;;0.50;0.50;;;;;10.76;85.25;99017.31;5036978;28;8812;-58
2022/12/24 02:31:00;;;;;;;;;3.00;2.50;;;;;10.76;84.55;99021.81;5037230;28;8836;-57
2022/12/24 02:33:29;;;;;;;;;1.50;1.00;;;;;10.76;84.67;99032.47;5037157;28;8858;-58
2022/12/24 02:35:56;;;;;;;;;3.75;3.75;;;;;10.74;84.32;99039.75;5037347;28;8849;-58
2022/12/24 02:38:24;;;;;;;;;1.50;0.50;;;;;10.73;84.46;99052.25;5037146;28;8840;-57
2022/12/24 02:40:52;;;;;;;;;2.00;2.00;;;;;10.73;84.57;99036.28;5037285;28;8836;-57
2022/12/24 02:43:19;;;;;;;;;3.00;3.00;;;;;10.73;84.58;99057.56;5037228;28;8861;-58
2022/12/24 02:45:48;;;;;;;;;1.00;1.00;;;;;10.71;84.52;99048.03;5037607;28;8935;-58
2022/12/24 02:48:23;;;;;;;;;1.00;1.00;;;;;10.67;83.78;99060.81;5037041;28;8828;-59
2022/12/24 02:50:50;;;;;;;;;5.50;4.00;;;;;10.62;84.41;99059.56;5036073;28;8939;-59
2022/12/24 02:53:18;;;;;;;;;4.00;1.00;;;;;10.60;84.48;99062.38;5035875;28;8832;-59
2022/12/24 02:55:46;;;;;;;;;2.50;1.50;;;;;10.58;84.16;99074.97;5035976;28;8836;-59
2022/12/24 02:58:14;;;;;;;;;1.75;1.75;;;;;10.55;84.33;99069.94;5035933;28;8813;-60
2022/12/24 03:00:41;;;;;;;;;1.00;1.00;;;;;10.53;84.23;99076.38;5036455;28;8848;-58
2022/12/24 03:03:09;;;;;;;;;3.00;3.00;;;;;10.52;84.07;99074.69;5035917;28;8813;-59
2022/12/24 03:05:37;;;;;;;;;1.00;0.75;;;;;10.50;84.35;99076.66;5036356;28;8828;-57
2022/12/24 03:08:05;;;;;;;;;3.25;2.50;;;;;10.50;84.60;99079.34;5036467;28;8839;-57
2022/12/24 03:10:33;;;;;;;;;1.00;1.00;;;;;10.49;84.15;99067.00;5036868;28;8821;-58
2022/12/24 03:13:01;;;;;;;;;0.00;0.00;;;;;10.49;84.09;99085.63;5036679;28;8838;-57
2022/12/24 03:15:29;;;;;;;;;2.00;1.00;;;;;10.45;84.11;99078.91;5036896;28;9538;-58
2022/12/24 03:17:56;;;;;;;;;4.00;3.50;;;;;10.39;84.06;99088.31;5036705;28;8869;-57
2022/12/24 03:20:24;;;;;;;;;0.50;0.50;;;;;10.35;84.22;99096.72;5036672;28;8831;-58
2022/12/24 03:22:52;;;;;;;;;1.00;1.00;;;;;10.33;84.51;99091.53;5035258;28;8867;-59
2022/12/24 03:25:19;;;;;;;;;3.00;1.00;;;;;10.30;84.41;99083.84;5036034;28;8832;-58
2022/12/24 03:27:47;;;;;;;;;2.00;2.00;;;;;10.25;84.74;99086.06;5036052;28;8823;-59
2022/12/24 03:30:17;;;;;;;;;3.50;3.00;;;;;10.26;84.70;99094.91;5036020;28;8832;-59
2022/12/24 03:32:44;;;;;;;;;2.00;2.00;;;;;10.25;84.72;99093.22;5035266;28;8817;-59
2022/12/24 03:35:13;;;;;;;;;2.50;2.50;;;;;10.24;84.51;99097.69;5034895;28;8845;-59
2022/12/24 03:37:40;;;;;;;;;2.50;1.50;;;;;10.24;84.49;99097.69;5034489;28;8856;-59
2022/12/24 03:40:08;;;;;;;;;0.50;0.50;;;;;10.27;84.71;99101.91;5035201;28;8821;-59
2022/12/24 03:42:36;;;;;;;;;4.00;3.00;;;;;10.28;84.36;99107.09;5034315;28;8823;-58
2022/12/24 03:45:03;;;;;;;;;3.25;3.00;;;;;10.31;84.40;99114.78;5035050;28;8852;-60
2022/12/24 03:47:31;;;;;;;;;3.00;3.00;;;;;10.34;84.24;99111.88;5035662;28;8864;-60
2022/12/24 03:49:59;;;;;;;;;1.00;1.00;;;;;10.38;83.99;99107.91;5036037;28;8860;-60
2022/12/24 03:52:27;;;;;;;;;2.50;1.50;;;;;10.46;84.02;99115.22;5036018;28;8820;-58
2022/12/24 03:54:54;;;;;;;;;1.00;1.00;;;;;10.52;83.49;99111.97;5036033;28;8860;-60
2022/12/24 03:57:22;;;;;;;;;1.50;0.75;;;;;10.56;83.84;99116.03;5035820;28;8871;-60
2022/12/24 03:59:50;;;;;;;;;3.75;2.50;;;;;10.58;83.41;99128.22;5036094;28;8825;-59
2022/12/24 04:02:18;;;;;;;;;2.00;1.00;;;;;10.61;83.64;99127.94;5035982;28;8851;-59
2022/12/24 04:04:46;;;;;;;;;1.00;1.00;;;;;10.64;83.56;99130.31;5035494;28;8812;-60
2022/12/24 04:07:13;;;;;;;;;0.25;0.25;;;;;10.66;83.23;99136.34;5035799;28;8836;-59
2022/12/24 04:09:41;;;;;;;;;2.00;1.00;;;;;10.69;83.08;99141.38;5035943;28;8906;-59
2022/12/24 04:12:10;;;;;;;;;0.50;0.50;;;;;10.71;83.40;99126.09;5036041;28;8840;-56
2022/12/24 04:14:38;;;;;;;;;1.00;1.00;;;;;10.72;83.07;99132.25;5035761;28;8821;-59
2022/12/24 04:17:06;;;;;;;;;3.50;3.50;;;;;10.73;83.26;99133.94;5036056;28;8940;-60
2022/12/24 04:19:33;;;;;;;;;0.00;0.00;;;;;10.73;82.91;99132.13;5036075;28;8844;-60
2022/12/24 04:22:01;;;;;;;;;1.00;0.00;;;;;10.73;82.83;99126.81;5035250;28;8823;-60
2022/12/24 04:24:29;;;;;;;;;2.50;1.00;;;;;10.74;83.03;99138.28;5035808;28;8816;-60
2022/12/24 04:26:57;;;;;;;;;0.75;0.75;;;;;10.72;83.11;99142.91;5035872;28;8812;-60
2022/12/24 04:29:24;;;;;;;;;3.25;3.25;;;;;10.72;82.74;99145.56;5035101;28;8833;-60
2022/12/24 04:31:52;;;;;;;;;1.00;1.00;;;;;10.70;83.38;99147.56;5035024;28;8859;-60
2022/12/24 04:34:20;;;;;;;;;1.00;1.00;;;;;10.68;82.68;99145.00;5036793;28;8886;-59
2022/12/24 04:36:48;;;;;;;;;1.00;1.00;;;;;10.69;83.28;99156.53;5039061;28;8825;-59
2022/12/24 04:39:16;;;;;;;;;1.00;1.00;;;;;10.69;83.36;99149.34;5039348;28;8851;-60
2022/12/24 04:41:43;;;;;;;;;1.00;0.75;;;;;10.70;83.73;99153.69;5039468;28;8912;-60
2022/12/24 04:44:11;;;;;;;;;1.00;1.00;;;;;10.72;83.14;99150.91;5038960;28;8832;-60
2022/12/24 04:46:39;;;;;;;;;5.00;3.75;;;;;10.72;83.56;99149.09;5038807;28;8832;-59
2022/12/24 04:49:07;;;;;;;;;3.00;0.00;;;;;10.71;83.05;99150.03;5039452;28;8816;-60
2022/12/24 04:51:35;;;;;;;;;3.00;2.50;;;;;10.72;83.25;99161.56;5038687;28;8824;-60
2022/12/24 04:54:03;;;;;;;;;1.00;1.00;;;;;10.70;83.17;99159.03;5039319;28;8848;-60
2022/12/24 04:56:31;;;;;;;;;0.25;0.25;;;;;10.71;83.45;99170.53;5038936;28;8840;-60
2022/12/24 04:58:58;;;;;;;;;2.00;1.00;;;;;10.71;83.21;99154.53;5038929;28;9082;-59
2022/12/24 05:01:26;;;;;;;;;1.00;1.00;;;;;10.70;83.38;99148.38;5039237;28;8816;-60
2022/12/24 05:03:54;;;;;;;;;1.00;1.00;;;;;10.70;83.42;99158.19;5038946;28;8836;-60
2022/12/24 05:06:22;;;;;;;;;3.50;2.00;;;;;10.70;83.43;99156.34;5038835;28;8851;-60
2022/12/24 05:08:49;;;;;;;;;1.00;0.00;;;;;10.70;83.57;99155.53;5038960;28;8813;-60
2022/12/24 05:11:17;;;;;;;;;0.50;0.50;;;;;10.71;83.47;99162.53;5039308;28;8833;-60
2022/12/24 05:13:46;;;;;;;;;0.00;0.00;;;;;10.72;83.72;99161.56;5039029;28;8844;-60
2022/12/24 05:16:14;;;;;;;;;1.50;1.50;;;;;10.72;83.75;99162.41;5038818;28;9519;-59
2022/12/24 05:18:42;;;;;;;;;3.00;1.00;;;;;10.72;83.51;99162.41;5038588;28;8836;-59
2022/12/24 05:21:10;;;;;;;;;1.00;1.00;;;;;10.72;83.68;99156.22;5039159;28;8950;-60
2022/12/24 05:26:23;;;;;;;;;1.00;1.00;;;;;10.71;83.70;99160.69;5038984;28;8833;-60
2022/12/24 05:28:51;;;;;;;;;1.00;1.00;;;;;10.71;83.16;99171.34;5038936;28;8861;-60
2022/12/24 05:31:18;;;;;;;;;0.50;0.50;;;;;10.70;83.96;99169.66;5038755;28;8844;-60
2022/12/24 05:33:46;;;;;;;;;1.00;0.25;;;;;10.70;83.94;99179.50;5038559;28;8824;-59
2022/12/24 05:36:14;;;;;;;;;2.00;0.75;;;;;10.69;83.52;99181.31;5038441;28;9160;-58
2022/12/24 05:38:42;;;;;;;;;1.00;1.00;;;;;10.68;83.85;99182.28;5038318;28;8816;-60
2022/12/24 05:41:09;;;;;;;;;5.00;3.25;;;;;10.68;83.56;99176.97;5038223;28;8872;-60
2022/12/24 05:43:37;;;;;;;;;0.00;0.00;;;;;10.71;83.71;99171.34;5038352;28;8838;-60
2022/12/24 05:46:05;;;;;;;;;1.00;1.00;;;;;10.75;83.90;99177.22;5037070;28;8832;-60
2022/12/24 05:48:32;;;;;;;;;1.00;1.00;;;;;10.75;83.46;99175.41;5038609;28;8922;-60
2022/12/24 05:51:01;;;;;;;;;1.75;1.75;;;;;10.77;83.44;99188.59;5038669;28;8849;-59
2022/12/24 05:53:28;;;;;;;;;1.00;1.00;;;;;10.79;83.43;99184.81;5038052;28;8836;-59
2022/12/24 05:55:56;;;;;;;;;0.00;0.00;;;;;10.81;83.52;99192.66;5037974;28;9513;-60
2022/12/24 05:58:24;;;;;;;;;1.00;1.00;;;;;10.82;83.69;99197.00;5038016;28;8898;-60
2022/12/24 06:00:51;;;;;;;;;1.00;1.00;;;;;10.84;84.07;99195.88;5037737;28;8851;-60
2022/12/24 06:03:20;;;;;;;;;3.00;2.50;;;;;10.85;83.76;99194.88;5037952;28;8836;-59
2022/12/24 06:05:48;;;;;;;;;1.00;0.75;;;;;10.88;84.07;99199.09;5037851;28;8959;-60
2022/12/24 06:08:15;;;;;;;;;0.50;0.50;;;;;10.88;83.98;99199.09;5037063;28;8863;-57
2022/12/24 06:10:43;;;;;;;;;1.00;1.00;;;;;10.88;83.20;99193.75;5037966;28;8825;-59
2022/12/24 06:13:10;;;;;;;;;4.00;3.75;;;;;10.87;83.68;99203.59;5037688;28;8864;-60
2022/12/24 06:15:38;;;;;;;;;1.00;1.00;;;;;10.88;83.50;99202.59;5037718;28;8936;-59
2022/12/24 06:18:06;;;;;;;;;3.00;3.00;;;;;10.88;83.89;99199.09;5037912;28;8860;-60
2022/12/24 06:20:34;;;;;;;;;0.50;0.00;;;;;10.88;83.83;99194.63;5038315;28;8843;-60
2022/12/24 06:23:02;;;;;;;;;2.00;2.00;;;;;10.89;83.86;99212.28;5038067;28;8843;-60
2022/12/24 06:25:29;;;;;;;;;3.00;3.00;;;;;10.89;83.94;99206.94;5037633;28;8813;-60
2022/12/24 06:27:58;;;;;;;;;3.00;1.50;;;;;10.89;83.71;99204.28;5037678;28;8959;-59
2022/12/24 06:30:25;;;;;;;;;2.00;1.00;;;;;10.89;83.57;99217.59;5037465;28;8828;-60
2022/12/24 06:32:53;;;;;;;;;0.25;0.25;;;;;10.88;83.58;99210.59;5037590;28;8837;-60
2022/12/24 06:35:21;;;;;;;;;0.00;0.00;;;;;10.88;83.81;99215.94;5037077;28;8878;-59
2022/12/24 06:37:48;;;;;;;;;1.00;1.00;;;;;10.87;83.46;99218.72;5036522;28;8840;-60
2022/12/24 06:40:16;;;;;;;;;1.00;1.00;;;;;10.86;83.75;99227.69;5036941;28;8852;-60
2022/12/24 06:42:44;;;;;;;;;0.00;0.00;;;;;10.86;83.46;99233.03;5037251;28;9499;-60
2022/12/24 06:45:12;;;;;;;;;2.50;1.00;;;;;10.85;83.68;99226.84;5037267;28;8887;-58
2022/12/24 06:47:39;;;;;;;;;2.00;2.00;;;;;10.85;83.67;99232.16;5036891;28;8845;-59
2022/12/24 06:50:07;;;;;;;;;0.75;0.75;;;;;10.86;83.36;99233.03;5036899;28;8841;-60
2022/12/24 06:52:35;;;;;;;;;2.00;1.00;;;;;10.86;83.84;99230.38;5036840;28;8813;-60
2022/12/24 06:55:03;;;;;;;;;0.00;0.00;;;;;10.86;83.60;99239.19;5036799;28;8828;-59
2022/12/24 06:57:31;;;;;;;;;3.00;1.00;;;;;10.87;83.58;99245.34;5036380;28;8816;-60
2022/12/24 06:59:58;;;;;;;;;4.00;3.25;;;;;10.87;83.87;99262.19;5036549;28;8934;-60
2022/12/24 07:02:27;;;;;;;;;2.50;1.00;;;;;10.87;83.91;99259.53;5036050;28;8833;-59
2022/12/24 07:04:56;;;;;;;;;0.00;0.00;;;;;10.87;83.46;99262.19;5035713;28;8828;-60
2022/12/24 07:07:24;;;;;;;;;3.00;3.00;;;;;10.87;83.94;99269.31;5034876;28;8847;-60
2022/12/24 07:09:51;;;;;;;;;1.50;1.00;;;;;10.86;84.02;99276.47;5036030;28;9617;-60
2022/12/24 07:12:19;;;;;;;;;1.00;1.00;;;;;10.87;84.00;99275.50;5035900;28;8851;-60
2022/12/24 07:14:47;;;;;;;;;2.00;2.00;;;;;10.88;83.62;99271.84;5036016;28;8829;-60
2022/12/24 07:17:15;;;;;;;;;1.00;1.00;;;;;10.88;83.59;99274.53;5036267;28;8879;-60
2022/12/24 07:19:43;;;;;;;;;3.00;2.50;;;;;10.88;83.93;99282.50;5036251;28;8856;-60
2022/12/24 07:22:11;;;;;;;;;2.00;1.00;;;;;10.88;84.04;99284.31;5036329;28;8844;-60
2022/12/24 07:24:42;;;;;;;;;0.25;0.00;;;;;10.89;83.93;99278.00;5035650;28;8821;-60
2022/12/24 07:27:09;;;;;;;;;2.00;1.00;;;;;10.90;83.88;99285.00;5036367;28;9510;-60
2022/12/24 07:29:39;;;;;;;;;0.75;0.25;;;;;10.90;84.06;99288.53;5035361;28;8828;-58
2022/12/24 07:32:07;;;;;;;;;4.25;3.00;;;;;10.89;83.54;99286.84;5036088;28;8836;-59
2022/12/24 07:34:34;;;;;;;;;3.00;2.50;;;;;10.90;83.45;99282.34;5035942;28;8959;-60
2022/12/24 07:37:02;;;;;;;;;1.50;1.00;;;;;10.90;83.53;99293.00;5036162;28;9734;-60
2022/12/24 07:39:30;;;;;;;;;2.50;2.50;;;;;10.89;83.96;99300.16;5036296;28;8836;-60
2022/12/24 07:41:57;;;;;;;;;1.00;1.00;;;;;10.90;83.47;99296.53;5036268;28;8836;-59
2022/12/24 07:44:25;;;;;;;;;1.00;1.00;;;;;10.89;83.79;99307.31;5035160;28;8839;-60
2022/12/24 07:46:53;;;;;;;;;1.00;1.00;;;;;10.89;83.55;99305.50;5035944;28;8845;-59
2022/12/24 07:49:21;;;;;;;;;1.50;1.00;;;;;10.89;83.73;99313.50;5035483;28;8959;-60
2022/12/24 07:51:48;;;;;;;;;2.00;2.00;;;;;10.88;83.65;99303.81;5035580;28;8832;-60
2022/12/24 07:54:16;;;;;;;;;1.50;1.50;;;;;10.90;83.55;99298.34;5035273;28;8986;-60
2022/12/24 07:56:44;;;;;;;;;3.50;3.00;;;;;10.89;84.08;99302.84;5034001;28;8843;-58
2022/12/24 07:59:12;;;;;;;;;2.50;2.50;;;;;10.88;83.26;99303.81;5035327;28;8856;-60
2022/12/24 08:01:39;;;;;;;;;1.00;1.00;;;;;10.90;83.50;99307.19;5035287;28;8871;-60
2022/12/24 08:04:07;;;;;;;;;3.00;1.00;;;;;10.90;83.46;99314.31;5034457;28;8821;-60
2022/12/24 08:06:36;;;;;;;;;0.25;0.25;;;;;10.90;83.13;99320.50;5035063;28;8933;-58
2022/12/24 08:09:03;;;;;;;;;2.00;2.00;;;;;10.90;83.50;99325.81;5034153;28;9501;-60
2022/12/24 08:11:31;;;;;;;;;2.00;2.00;;;;;10.91;83.71;99313.38;5034033;28;8835;-60
2022/12/24 08:13:59;;;;;;;;;0.00;0.00;;;;;10.90;84.00;99333.81;5034071;28;9537;-60
2022/12/24 08:16:26;;;;;;;;;2.00;1.50;;;;;10.92;83.94;99345.16;5033015;28;8891;-59
2022/12/24 08:18:55;;;;;;;;;3.00;3.00;;;;;10.93;84.03;99346.84;5033383;28;8816;-58
2022/12/24 08:21:22;;;;;;;;;4.50;4.00;;;;;10.94;83.61;99353.84;5033820;28;8836;-60
2022/12/24 08:23:50;;;;;;;;;2.00;2.00;;;;;10.94;83.02;99353.84;5033519;28;8835;-60
2022/12/24 08:26:18;;;;;;;;;1.00;1.00;;;;;10.96;83.26;99356.38;5033795;28;8824;-60
2022/12/24 08:28:45;;;;;;;;;0.75;0.75;;;;;10.97;83.44;99358.91;5032388;28;8844;-58
2022/12/24 08:31:14;;;;;;;;;1.00;1.00;;;;;10.97;83.33;99364.25;5033382;28;8817;-60
2022/12/24 08:33:43;;;;;;;;;3.00;3.00;;;;;10.97;83.50;99372.25;5032372;28;8831;-60
2022/12/24 08:36:10;;;;;;;;;3.25;1.00;;;;;10.98;83.56;99365.94;5032959;28;8836;-60
2022/12/24 08:38:38;;;;;;;;;3.25;2.50;;;;;11.01;83.38;99381.63;5033810;28;9567;-58
2022/12/24 08:41:06;;;;;;;;;1.50;1.00;;;;;11.03;83.37;99374.34;5032952;28;8817;-58
2022/12/24 08:43:34;;;;;;;;;1.00;1.00;;;;;11.05;83.29;99393.69;5033119;28;8809;-58
2022/12/24 08:46:02;;;;;;;;;5.00;4.00;;;;;11.04;82.97;99386.69;5033542;28;8832;-60
2022/12/24 08:48:29;;;;;;;;;0.25;0.25;;;;;11.05;83.48;99401.69;5034113;28;8848;-58
2022/12/24 08:50:57;;;;;;;;;2.75;1.50;;;;;11.04;83.50;99400.00;5034201;28;8840;-59
2022/12/24 08:53:25;;;;;;;;;1.00;1.00;;;;;11.04;82.80;99400.00;5034151;28;8801;-58
2022/12/24 08:55:55;;;;;;;;;0.50;0.50;;;;;11.03;83.23;99401.00;5033641;28;8836;-60
2022/12/24 08:58:23;;;;;;;;;1.00;1.00;;;;;11.04;83.28;99399.16;5032689;28;8864;-59
2022/12/24 09:00:51;;;;;;;;;3.00;3.00;;;;;11.04;82.99;99410.66;5034311;28;8845;-57
2022/12/24 09:03:19;;;;;;;;;3.00;3.00;;;;;11.04;82.87;99402.69;5033438;28;8906;-58
2022/12/24 09:05:54;;;;;;;;;0.75;0.75;;;;;11.06;82.92;99415.88;5033283;28;8840;-58
2022/12/24 09:08:22;;;;;;;;;2.00;2.00;;;;;11.07;82.70;99423.72;5031969;28;8906;-58
2022/12/24 09:10:50;;;;;;;;;2.00;1.50;;;;;11.09;83.25;99423.56;5033509;28;8851;-59
2022/12/24 09:13:18;;;;;;;;;1.00;1.00;;;;;11.10;82.80;99426.13;5033435;28;8845;-58
2022/12/24 09:15:45;;;;;;;;;2.50;2.50;;;;;11.13;82.95;99436.47;5033027;28;8841;-60
2022/12/24 09:18:13;;;;;;;;;2.00;2.00;;;;;11.15;82.66;99431.84;5033489;28;8860;-60
2022/12/24 09:20:41;;;;;;;;;2.50;2.50;;;;;11.17;82.24;99437.91;5034828;28;8855;-60
2022/12/24 09:23:13;;;;;;;;;3.00;3.00;;;;;11.18;82.64;99434.25;5035647;28;8870;-57
2022/12/24 09:25:41;;;;;;;;;2.00;2.00;;;;;11.18;82.58;99436.91;5034474;28;8856;-60
2022/12/24 09:28:08;;;;;;;;;1.00;1.00;;;;;11.19;82.37;99443.94;5035224;28;8864;-58
2022/12/24 09:30:37;;;;;;;;;1.00;1.00;;;;;11.21;82.81;99459.78;5034049;28;8840;-58
2022/12/24 09:33:05;;;;;;;;;0.75;0.75;;;;;11.26;81.79;99462.88;5034690;28;8844;-58
2022/12/24 09:35:33;;;;;;;;;1.00;1.00;;;;;11.28;82.64;99455.56;5034506;28;8970;-59
2022/12/24 09:38:02;;;;;;;;;5.50;3.50;;;;;11.33;82.23;99472.00;5033799;28;8844;-58
2022/12/24 09:40:30;;;;;;;;;3.25;3.25;;;;;11.36;81.90;99464.56;5035379;28;9644;-57
2022/12/24 09:42:58;;;;;;;;;1.00;1.00;;;;;11.40;81.89;99475.81;5035220;28;8828;-57
2022/12/24 09:45:26;;;;;;;;;6.00;3.00;;;;;11.44;82.27;99474.56;5033776;28;8848;-59
2022/12/24 09:47:54;;;;;;;;;3.00;1.50;;;;;11.54;81.78;99481.56;5035103;28;8908;-58
2022/12/24 09:50:22;;;;;;;;;1.00;1.00;;;;;11.65;81.69;99481.47;5035827;28;8829;-58
2022/12/24 09:52:49;;;;;;;;;1.00;1.00;;;;;11.68;81.08;99478.50;5036037;28;8863;-58
2022/12/24 09:55:17;;;;;;;;;3.25;2.00;;;;;11.70;81.44;99481.91;5035859;28;8870;-58
2022/12/24 09:57:45;;;;;;;;;3.25;3.00;;;;;11.75;81.33;99478.81;5035878;28;8844;-58
2022/12/24 10:00:14;;;;;;;;;3.00;3.00;;;;;11.80;81.27;99488.06;5036173;28;8849;-57
2022/12/24 10:02:41;;;;;;;;;3.00;1.00;;;;;11.83;80.99;99490.44;5036668;28;8838;-58
2022/12/24 10:05:10;;;;;;;;;0.50;0.50;;;;;11.87;80.82;99510.53;5036680;28;8837;-58
2022/12/24 10:07:38;;;;;;;;;2.50;1.00;;;;;11.88;80.52;99493.53;5035781;28;9529;-58
2022/12/24 10:10:07;;;;;;;;;4.00;4.00;;;;;11.90;80.89;99504.91;5035071;28;8890;-57
2022/12/24 10:12:34;;;;;;;;;1.00;1.00;;;;;11.88;80.57;99498.03;5035358;28;8832;-59
2022/12/24 10:15:03;;;;;;;;;3.00;3.00;;;;;11.87;80.63;99504.34;5035543;28;8843;-58
2022/12/24 10:17:30;;;;;;;;;0.00;0.00;;;;;11.84;80.76;99500.13;5035637;28;8864;-58
2022/12/24 10:19:58;;;;;;;;;9.50;9.00;;;;;11.86;80.36;99500.84;5035555;28;8979;-59
2022/12/24 10:22:27;;;;;;;;;3.00;3.00;;;;;11.89;80.56;99500.56;5035775;28;8848;-58
2022/12/24 10:24:55;;;;;;;;;1.00;1.00;;;;;11.85;80.70;99501.84;5036282;28;8862;-57
2022/12/24 10:27:23;;;;;;;;;2.00;1.00;;;;;11.86;81.01;99502.66;5036166;28;8913;-58
2022/12/24 10:29:50;;;;;;;;;0.50;0.50;;;;;11.93;80.68;99504.63;5035319;28;8987;-58
2022/12/24 10:32:18;;;;;;;;;3.25;3.25;;;;;11.99;80.89;99509.38;5034600;28;8874;-57
2022/12/24 10:34:46;;;;;;;;;3.25;3.25;;;;;12.02;80.45;99517.13;5035652;28;8836;-59
2022/12/24 10:37:14;;;;;;;;;3.00;3.00;;;;;12.05;80.39;99511.50;5035797;28;8852;-58
2022/12/24 10:39:42;;;;;;;;;2.00;2.00;;;;;12.06;80.01;99515.84;5035387;28;8844;-58
2022/12/24 10:42:10;;;;;;;;;0.50;0.50;;;;;12.08;80.44;99513.91;5035801;28;8860;-60
2022/12/24 10:44:39;;;;;;;;;3.50;3.00;;;;;12.12;79.87;99515.28;5035645;28;8963;-59
2022/12/24 10:47:07;;;;;;;;;3.00;3.00;;;;;12.25;80.09;99505.16;5035369;28;8855;-59
2022/12/24 10:49:35;;;;;;;;;2.50;2.00;;;;;12.39;79.32;99507.38;5036208;28;9855;-58
2022/12/24 10:52:02;;;;;;;;;2.50;2.50;;;;;12.44;79.23;99505.97;5035353;28;8832;-57
2022/12/24 10:54:37;;;;;;;;;3.00;1.00;;;;;12.44;79.25;99513.97;5035748;28;8963;-58
2022/12/24 10:57:06;;;;;;;;;2.50;2.50;;;;;12.39;79.78;99502.88;5035911;28;8868;-58
2022/12/24 10:59:34;;;;;;;;;3.75;3.25;;;;;12.39;79.48;99504.72;5035810;28;8829;-59
2022/12/24 11:02:01;;;;;;;;;5.25;3.75;;;;;12.32;79.84;99500.94;5035631;28;8874;-58
2022/12/24 11:04:29;;;;;;;;;3.50;3.25;;;;;12.23;79.70;99494.63;5035442;28;8829;-58
2022/12/24 11:06:58;;;;;;;;;6.75;3.75;;;;;12.33;79.90;99503.47;5035417;28;8961;-59
2022/12/24 11:09:25;;;;;;;;;1.50;1.50;;;;;12.66;78.64;99494.06;5035527;28;8840;-60
2022/12/24 11:11:54;;;;;;;;;4.00;4.00;;;;;13.05;77.71;99490.31;5035077;28;8848;-58
2022/12/24 11:14:22;;;;;;;;;6.00;3.50;;;;;13.21;77.26;99490.50;5034904;28;8844;-58
2022/12/24 11:16:49;;;;;;;;;3.75;1.00;;;;;13.07;77.25;99496.34;5033578;28;8844;-61
2022/12/24 11:19:17;;;;;;;;;2.50;2.50;;;;;13.25;77.11;99492.72;5035057;28;8963;-58
2022/12/24 11:21:45;;;;;;;;;3.50;3.50;;;;;13.48;77.28;99499.31;5034669;28;8856;-58
2022/12/24 11:24:14;;;;;;;;;3.50;3.00;;;;;13.61;76.97;99496.28;5034195;28;8817;-58
2022/12/24 11:26:42;;;;;;;;;2.00;1.00;;;;;13.73;76.90;99487.03;5033736;28;8828;-61
2022/12/24 11:29:10;;;;;;;;;6.00;3.25;;;;;13.78;75.96;99490.94;5034582;28;8862;-58
2022/12/24 11:31:38;;;;;;;;;4.00;3.00;;;;;13.68;76.14;99489.31;5033716;28;8851;-59
2022/12/24 11:34:06;;;;;;;;;1.00;1.00;;;;;13.59;76.63;99485.72;5032882;28;8841;-58
2022/12/24 11:36:34;;;;;;;;;5.00;3.00;;;;;13.72;76.56;99488.00;5033512;28;8829;-59
2022/12/24 11:39:02;;;;;;;;;2.75;2.75;;;;;13.65;76.51;99484.25;5034208;28;8852;-59
2022/12/24 11:41:30;;;;;;;;;1.00;1.00;;;;;13.41;76.99;99489.34;5034263;28;8930;-61
2022/12/24 11:43:58;;;;;;;;;1.00;0.75;;;;;13.14;77.95;99487.56;5033720;28;8882;-59
2022/12/24 11:46:26;;;;;;;;;4.00;3.75;;;;;12.94;77.90;99490.44;5034914;28;8848;-58
2022/12/24 11:48:54;;;;;;;;;2.00;2.00;;;;;12.73;78.70;99485.34;5034454;28;8836;-57
2022/12/24 11:51:22;;;;;;;;;3.75;3.50;;;;;12.59;78.77;99487.63;5034670;28;8963;-59